sensor_id;sensor_type;location;lat;lon;timestamp;P1;durP1;ratioP1;P2;durP2;ratioP2
7485;SDS011;3784;54.098;9.998;2022-12-18T00:00:45;22.40;;;17.02;;
7485;SDS011;3784;54.098;9.998;2022-12-18T00:03:16;24.35;;;16.45;;
7485;SDS011;3784;54.098;9.998;2022-12-18T00:05:46;20.20;;;16.77;;
7485;SDS011;3784;54.098;9.998;2022-12-18T00:08:13;24.23;;;17.00;;
7485;SDS011;3784;54.098;9.998;2022-12-18T00:10:40;22.13;;;17.17;;
7485;SDS011;3784;54.098;9.998;2022-12-18T00:13:07;20.02;;;16.20;;
7485;SDS011;3784;54.098;9.998;2022-12-18T00:15:36;21.02;;;16.00;;
7485;SDS011;3784;54.098;9.998;2022-12-18T00:18:04;22.70;;;16.65;;
7485;SDS011;3784;54.098;9.998;2022-12-18T00:20:31;24.00;;;15.93;;
7485;SDS011;3784;54.098;9.998;2022-12-18T00:23:01;26.55;;;16.77;;
7485;SDS011;3784;54.098;9.998;2022-12-18T00:25:28;29.25;;;17.48;;
7485;SDS011;3784;54.098;9.998;2022-12-18T00:27:54;29.42;;;17.25;;
7485;SDS011;3784;54.098;9.998;2022-12-18T00:30:21;28.73;;;17.80;;
7485;SDS011;3784;54.098;9.998;2022-12-18T00:32:47;34.20;;;17.70;;
7485;SDS011;3784;54.098;9.998;2022-12-18T00:35:14;27.20;;;16.80;;
7485;SDS011;3784;54.098;9.998;2022-12-18T00:37:40;26.88;;;17.17;;
7485;SDS011;3784;54.098;9.998;2022-12-18T00:40:07;30.08;;;16.95;;
7485;SDS011;3784;54.098;9.998;2022-12-18T00:42:34;31.00;;;16.10;;
7485;SDS011;3784;54.098;9.998;2022-12-18T00:45:21;19.40;;;14.88;;
7485;SDS011;3784;54.098;9.998;2022-12-18T00:47:48;22.52;;;16.58;;
7485;SDS011;3784;54.098;9.998;2022-12-18T00:50:15;19.30;;;14.68;;
7485;SDS011;3784;54.098;9.998;2022-12-18T00:52:41;22.90;;;15.85;;
7485;SDS011;3784;54.098;9.998;2022-12-18T00:55:09;18.48;;;15.20;;
7485;SDS011;3784;54.098;9.998;2022-12-18T00:57:35;20.08;;;15.85;;
7485;SDS011;3784;54.098;9.998;2022-12-18T01:00:03;26.00;;;16.15;;
7485;SDS011;3784;54.098;9.998;2022-12-18T01:02:31;21.48;;;15.90;;
7485;SDS011;3784;54.098;9.998;2022-12-18T01:04:58;19.88;;;15.30;;
7485;SDS011;3784;54.098;9.998;2022-12-18T01:07:32;19.65;;;14.60;;
7485;SDS011;3784;54.098;9.998;2022-12-18T01:10:01;21.50;;;14.20;;
7485;SDS011;3784;54.098;9.998;2022-12-18T01:12:32;20.30;;;14.82;;
7485;SDS011;3784;54.098;9.998;2022-12-18T01:15:00;18.90;;;14.27;;
7485;SDS011;3784;54.098;9.998;2022-12-18T01:17:27;19.50;;;14.90;;
7485;SDS011;3784;54.098;9.998;2022-12-18T01:19:54;19.90;;;14.65;;
7485;SDS011;3784;54.098;9.998;2022-12-18T01:22:21;20.52;;;14.15;;
7485;SDS011;3784;54.098;9.998;2022-12-18T01:24:48;22.23;;;14.45;;
7485;SDS011;3784;54.098;9.998;2022-12-18T01:27:15;16.75;;;14.00;;
7485;SDS011;3784;54.098;9.998;2022-12-18T01:29:42;20.42;;;13.85;;
7485;SDS011;3784;54.098;9.998;2022-12-18T01:32:09;24.58;;;15.55;;
7485;SDS011;3784;54.098;9.998;2022-12-18T01:34:36;22.63;;;15.27;;
7485;SDS011;3784;54.098;9.998;2022-12-18T01:37:04;23.10;;;14.07;;
7485;SDS011;3784;54.098;9.998;2022-12-18T01:39:32;21.52;;;14.32;;
7485;SDS011;3784;54.098;9.998;2022-12-18T01:42:09;19.48;;;13.80;;
7485;SDS011;3784;54.098;9.998;2022-12-18T01:47:58;21.38;;;14.40;;
7485;SDS011;3784;54.098;9.998;2022-12-18T01:53:11;23.65;;;15.23;;
7485;SDS011;3784;54.098;9.998;2022-12-18T01:55:51;21.60;;;15.20;;
7485;SDS011;3784;54.098;9.998;2022-12-18T01:58:23;22.38;;;14.52;;
7485;SDS011;3784;54.098;9.998;2022-12-18T02:01:00;19.20;;;14.00;;
7485;SDS011;3784;54.098;9.998;2022-12-18T02:03:27;23.13;;;14.63;;
7485;SDS011;3784;54.098;9.998;2022-12-18T02:06:06;21.08;;;14.80;;
7485;SDS011;3784;54.098;9.998;2022-12-18T02:11:32;18.63;;;14.35;;
7485;SDS011;3784;54.098;9.998;2022-12-18T02:14:15;19.08;;;13.60;;
7485;SDS011;3784;54.098;9.998;2022-12-18T02:16:59;17.75;;;14.27;;
7485;SDS011;3784;54.098;9.998;2022-12-18T02:22:46;17.20;;;14.30;;
7485;SDS011;3784;54.098;9.998;2022-12-18T02:28:06;19.20;;;14.13;;
7485;SDS011;3784;54.098;9.998;2022-12-18T02:30:36;20.65;;;14.55;;
7485;SDS011;3784;54.098;9.998;2022-12-18T02:33:07;17.95;;;13.95;;
7485;SDS011;3784;54.098;9.998;2022-12-18T02:35:39;18.70;;;13.88;;
7485;SDS011;3784;54.098;9.998;2022-12-18T02:38:08;19.77;;;13.38;;
7485;SDS011;3784;54.098;9.998;2022-12-18T02:40:35;16.75;;;13.25;;
7485;SDS011;3784;54.098;9.998;2022-12-18T02:43:08;16.80;;;13.07;;
7485;SDS011;3784;54.098;9.998;2022-12-18T02:45:50;18.30;;;14.32;;
7485;SDS011;3784;54.098;9.998;2022-12-18T02:48:24;20.17;;;12.93;;
7485;SDS011;3784;54.098;9.998;2022-12-18T02:51:06;19.35;;;11.77;;
7485;SDS011;3784;54.098;9.998;2022-12-18T02:53:40;17.52;;;12.77;;
7485;SDS011;3784;54.098;9.998;2022-12-18T02:56:19;19.27;;;14.45;;
7485;SDS011;3784;54.098;9.998;2022-12-18T02:58:56;16.85;;;12.57;;
7485;SDS011;3784;54.098;9.998;2022-12-18T03:01:43;15.73;;;12.80;;
7485;SDS011;3784;54.098;9.998;2022-12-18T03:04:20;21.23;;;12.88;;
7485;SDS011;3784;54.098;9.998;2022-12-18T03:06:52;15.65;;;12.32;;
7485;SDS011;3784;54.098;9.998;2022-12-18T03:09:22;15.82;;;12.75;;
7485;SDS011;3784;54.098;9.998;2022-12-18T03:14:57;17.23;;;12.60;;
7485;SDS011;3784;54.098;9.998;2022-12-18T03:17:28;17.85;;;12.52;;
7485;SDS011;3784;54.098;9.998;2022-12-18T03:19:58;17.50;;;12.45;;
7485;SDS011;3784;54.098;9.998;2022-12-18T03:22:30;16.30;;;12.48;;
7485;SDS011;3784;54.098;9.998;2022-12-18T03:25:00;17.13;;;13.10;;
7485;SDS011;3784;54.098;9.998;2022-12-18T03:27:29;18.45;;;12.98;;
7485;SDS011;3784;54.098;9.998;2022-12-18T03:30:07;20.40;;;12.88;;
7485;SDS011;3784;54.098;9.998;2022-12-18T03:32:47;15.50;;;12.25;;
7485;SDS011;3784;54.098;9.998;2022-12-18T03:35:29;18.08;;;11.60;;
7485;SDS011;3784;54.098;9.998;2022-12-18T03:37:58;14.32;;;11.13;;
7485;SDS011;3784;54.098;9.998;2022-12-18T03:43:22;15.45;;;11.80;;
7485;SDS011;3784;54.098;9.998;2022-12-18T03:48:48;14.80;;;11.55;;
7485;SDS011;3784;54.098;9.998;2022-12-18T03:51:32;15.10;;;10.88;;
7485;SDS011;3784;54.098;9.998;2022-12-18T03:54:02;15.10;;;11.43;;
7485;SDS011;3784;54.098;9.998;2022-12-18T03:56:31;17.30;;;11.15;;
7485;SDS011;3784;54.098;9.998;2022-12-18T03:59:03;14.77;;;11.00;;
7485;SDS011;3784;54.098;9.998;2022-12-18T04:01:37;16.00;;;11.15;;
7485;SDS011;3784;54.098;9.998;2022-12-18T04:04:07;15.63;;;11.35;;
7485;SDS011;3784;54.098;9.998;2022-12-18T04:06:35;15.88;;;12.13;;
7485;SDS011;3784;54.098;9.998;2022-12-18T04:09:03;15.73;;;11.05;;
7485;SDS011;3784;54.098;9.998;2022-12-18T04:11:33;15.18;;;11.23;;
7485;SDS011;3784;54.098;9.998;2022-12-18T04:14:01;16.85;;;11.18;;
7485;SDS011;3784;54.098;9.998;2022-12-18T04:16:32;14.50;;;11.52;;
7485;SDS011;3784;54.098;9.998;2022-12-18T04:18:59;20.55;;;11.80;;
7485;SDS011;3784;54.098;9.998;2022-12-18T04:21:28;17.52;;;12.48;;
7485;SDS011;3784;54.098;9.998;2022-12-18T04:23:56;15.57;;;11.02;;
7485;SDS011;3784;54.098;9.998;2022-12-18T04:26:22;16.52;;;11.13;;
7485;SDS011;3784;54.098;9.998;2022-12-18T04:28:49;14.95;;;10.95;;
7485;SDS011;3784;54.098;9.998;2022-12-18T04:31:15;14.70;;;11.30;;
7485;SDS011;3784;54.098;9.998;2022-12-18T04:33:42;13.00;;;10.75;;
7485;SDS011;3784;54.098;9.998;2022-12-18T04:36:08;17.13;;;11.07;;
7485;SDS011;3784;54.098;9.998;2022-12-18T04:38:35;15.18;;;10.98;;
7485;SDS011;3784;54.098;9.998;2022-12-18T04:41:01;15.80;;;11.65;;
7485;SDS011;3784;54.098;9.998;2022-12-18T04:43:28;13.93;;;11.00;;
7485;SDS011;3784;54.098;9.998;2022-12-18T04:46:01;15.18;;;10.82;;
7485;SDS011;3784;54.098;9.998;2022-12-18T04:48:30;17.02;;;10.90;;
7485;SDS011;3784;54.098;9.998;2022-12-18T04:50:57;17.02;;;11.43;;
7485;SDS011;3784;54.098;9.998;2022-12-18T04:53:23;19.98;;;11.85;;
7485;SDS011;3784;54.098;9.998;2022-12-18T04:55:50;14.52;;;10.48;;
7485;SDS011;3784;54.098;9.998;2022-12-18T04:58:17;15.63;;;10.90;;
7485;SDS011;3784;54.098;9.998;2022-12-18T05:00:43;17.05;;;10.73;;
7485;SDS011;3784;54.098;9.998;2022-12-18T05:03:09;16.73;;;11.48;;
7485;SDS011;3784;54.098;9.998;2022-12-18T05:05:36;17.52;;;11.48;;
7485;SDS011;3784;54.098;9.998;2022-12-18T05:08:03;12.85;;;11.23;;
7485;SDS011;3784;54.098;9.998;2022-12-18T05:10:30;12.55;;;10.65;;
7485;SDS011;3784;54.098;9.998;2022-12-18T05:13:03;13.75;;;10.98;;
7485;SDS011;3784;54.098;9.998;2022-12-18T05:15:30;17.50;;;11.57;;
7485;SDS011;3784;54.098;9.998;2022-12-18T05:17:58;16.92;;;11.52;;
7485;SDS011;3784;54.098;9.998;2022-12-18T05:20:25;15.32;;;11.05;;
7485;SDS011;3784;54.098;9.998;2022-12-18T05:22:53;13.82;;;10.55;;
7485;SDS011;3784;54.098;9.998;2022-12-18T05:25:19;20.00;;;11.43;;
7485;SDS011;3784;54.098;9.998;2022-12-18T05:27:46;17.33;;;10.75;;
7485;SDS011;3784;54.098;9.998;2022-12-18T05:30:13;14.98;;;10.65;;
7485;SDS011;3784;54.098;9.998;2022-12-18T05:32:40;12.88;;;10.82;;
7485;SDS011;3784;54.098;9.998;2022-12-18T05:35:08;14.07;;;10.55;;
7485;SDS011;3784;54.098;9.998;2022-12-18T05:37:35;15.05;;;11.05;;
7485;SDS011;3784;54.098;9.998;2022-12-18T05:40:08;15.88;;;10.50;;
7485;SDS011;3784;54.098;9.998;2022-12-18T05:42:35;15.02;;;11.63;;
7485;SDS011;3784;54.098;9.998;2022-12-18T05:45:01;14.98;;;10.50;;
7485;SDS011;3784;54.098;9.998;2022-12-18T05:47:28;14.55;;;11.57;;
7485;SDS011;3784;54.098;9.998;2022-12-18T05:49:54;15.45;;;11.48;;
7485;SDS011;3784;54.098;9.998;2022-12-18T05:52:21;12.48;;;9.85;;
7485;SDS011;3784;54.098;9.998;2022-12-18T05:54:47;14.00;;;10.63;;
7485;SDS011;3784;54.098;9.998;2022-12-18T05:57:14;13.52;;;10.85;;
7485;SDS011;3784;54.098;9.998;2022-12-18T05:59:41;12.77;;;10.20;;
7485;SDS011;3784;54.098;9.998;2022-12-18T06:02:07;13.93;;;10.70;;
7485;SDS011;3784;54.098;9.998;2022-12-18T06:04:34;15.00;;;11.07;;
7485;SDS011;3784;54.098;9.998;2022-12-18T06:07:00;12.50;;;10.05;;
7485;SDS011;3784;54.098;9.998;2022-12-18T06:09:30;12.30;;;9.23;;
7485;SDS011;3784;54.098;9.998;2022-12-18T06:11:56;13.85;;;9.80;;
7485;SDS011;3784;54.098;9.998;2022-12-18T06:14:23;13.05;;;8.40;;
7485;SDS011;3784;54.098;9.998;2022-12-18T06:16:50;12.40;;;8.73;;
7485;SDS011;3784;54.098;9.998;2022-12-18T06:19:18;11.82;;;9.48;;
7485;SDS011;3784;54.098;9.998;2022-12-18T06:21:44;13.25;;;9.15;;
7485;SDS011;3784;54.098;9.998;2022-12-18T06:24:11;11.52;;;8.95;;
7485;SDS011;3784;54.098;9.998;2022-12-18T06:26:38;14.57;;;8.98;;
7485;SDS011;3784;54.098;9.998;2022-12-18T06:29:05;12.77;;;8.57;;
7485;SDS011;3784;54.098;9.998;2022-12-18T06:31:31;15.90;;;10.60;;
7485;SDS011;3784;54.098;9.998;2022-12-18T06:33:58;13.10;;;9.88;;
7485;SDS011;3784;54.098;9.998;2022-12-18T06:36:26;14.07;;;8.80;;
7485;SDS011;3784;54.098;9.998;2022-12-18T06:38:52;11.13;;;9.45;;
7485;SDS011;3784;54.098;9.998;2022-12-18T06:41:19;13.57;;;8.90;;
7485;SDS011;3784;54.098;9.998;2022-12-18T06:43:46;12.25;;;9.50;;
7485;SDS011;3784;54.098;9.998;2022-12-18T06:46:13;13.43;;;9.48;;
7485;SDS011;3784;54.098;9.998;2022-12-18T06:48:40;10.80;;;8.88;;
7485;SDS011;3784;54.098;9.998;2022-12-18T06:51:06;10.13;;;8.57;;
7485;SDS011;3784;54.098;9.998;2022-12-18T06:53:33;11.55;;;8.90;;
7485;SDS011;3784;54.098;9.998;2022-12-18T06:56:04;11.05;;;9.13;;
7485;SDS011;3784;54.098;9.998;2022-12-18T06:58:36;12.75;;;9.18;;
7485;SDS011;3784;54.098;9.998;2022-12-18T07:01:04;11.45;;;9.50;;
7485;SDS011;3784;54.098;9.998;2022-12-18T07:03:31;12.60;;;9.50;;
7485;SDS011;3784;54.098;9.998;2022-12-18T07:05:58;14.57;;;9.98;;
7485;SDS011;3784;54.098;9.998;2022-12-18T07:08:24;11.70;;;9.05;;
7485;SDS011;3784;54.098;9.998;2022-12-18T07:10:51;11.32;;;8.73;;
7485;SDS011;3784;54.098;9.998;2022-12-18T07:13:21;12.27;;;9.20;;
7485;SDS011;3784;54.098;9.998;2022-12-18T07:15:48;12.38;;;9.48;;
7485;SDS011;3784;54.098;9.998;2022-12-18T07:18:15;15.57;;;10.75;;
7485;SDS011;3784;54.098;9.998;2022-12-18T07:20:41;12.68;;;10.18;;
7485;SDS011;3784;54.098;9.998;2022-12-18T07:23:08;14.60;;;11.23;;
7485;SDS011;3784;54.098;9.998;2022-12-18T07:25:34;14.48;;;11.65;;
7485;SDS011;3784;54.098;9.998;2022-12-18T07:28:02;14.75;;;11.70;;
7485;SDS011;3784;54.098;9.998;2022-12-18T07:30:28;14.90;;;12.20;;
7485;SDS011;3784;54.098;9.998;2022-12-18T07:32:55;15.10;;;11.95;;
7485;SDS011;3784;54.098;9.998;2022-12-18T07:35:21;13.30;;;11.25;;
7485;SDS011;3784;54.098;9.998;2022-12-18T07:37:50;16.35;;;12.75;;
7485;SDS011;3784;54.098;9.998;2022-12-18T07:40:17;18.35;;;13.45;;
7485;SDS011;3784;54.098;9.998;2022-12-18T07:42:43;18.95;;;14.43;;
7485;SDS011;3784;54.098;9.998;2022-12-18T07:45:10;20.13;;;14.80;;
7485;SDS011;3784;54.098;9.998;2022-12-18T07:47:37;18.83;;;15.27;;
7485;SDS011;3784;54.098;9.998;2022-12-18T07:50:03;16.27;;;13.07;;
7485;SDS011;3784;54.098;9.998;2022-12-18T07:52:31;16.67;;;12.02;;
7485;SDS011;3784;54.098;9.998;2022-12-18T07:54:58;16.52;;;12.68;;
7485;SDS011;3784;54.098;9.998;2022-12-18T07:57:24;11.48;;;10.27;;
7485;SDS011;3784;54.098;9.998;2022-12-18T08:00:11;15.85;;;11.20;;
7485;SDS011;3784;54.098;9.998;2022-12-18T08:02:38;11.35;;;10.18;;
7485;SDS011;3784;54.098;9.998;2022-12-18T08:05:05;15.00;;;10.82;;
7485;SDS011;3784;54.098;9.998;2022-12-18T08:07:32;11.65;;;10.10;;
7485;SDS011;3784;54.098;9.998;2022-12-18T08:09:58;12.88;;;9.88;;
7485;SDS011;3784;54.098;9.998;2022-12-18T08:12:25;14.23;;;10.32;;
7485;SDS011;3784;54.098;9.998;2022-12-18T08:14:51;15.40;;;12.25;;
7485;SDS011;3784;54.098;9.998;2022-12-18T08:17:19;20.77;;;14.55;;
7485;SDS011;3784;54.098;9.998;2022-12-18T08:19:45;16.50;;;11.57;;
7485;SDS011;3784;54.098;9.998;2022-12-18T08:22:12;15.40;;;11.75;;
7485;SDS011;3784;54.098;9.998;2022-12-18T08:24:38;13.02;;;9.80;;
7485;SDS011;3784;54.098;9.998;2022-12-18T08:27:05;15.32;;;9.65;;
7485;SDS011;3784;54.098;9.998;2022-12-18T08:29:51;13.02;;;10.23;;
7485;SDS011;3784;54.098;9.998;2022-12-18T08:32:18;13.10;;;9.68;;
7485;SDS011;3784;54.098;9.998;2022-12-18T08:34:44;15.07;;;9.68;;
7485;SDS011;3784;54.098;9.998;2022-12-18T08:37:11;13.63;;;9.27;;
7485;SDS011;3784;54.098;9.998;2022-12-18T08:39:37;13.95;;;10.27;;
7485;SDS011;3784;54.098;9.998;2022-12-18T08:42:04;12.55;;;10.20;;
7485;SDS011;3784;54.098;9.998;2022-12-18T08:44:49;11.18;;;9.65;;
7485;SDS011;3784;54.098;9.998;2022-12-18T08:47:15;13.38;;;9.60;;
7485;SDS011;3784;54.098;9.998;2022-12-18T08:49:42;14.82;;;9.38;;
7485;SDS011;3784;54.098;9.998;2022-12-18T08:52:08;12.82;;;9.82;;
7485;SDS011;3784;54.098;9.998;2022-12-18T08:54:35;11.80;;;10.07;;
7485;SDS011;3784;54.098;9.998;2022-12-18T08:57:01;12.98;;;11.52;;
7485;SDS011;3784;54.098;9.998;2022-12-18T08:59:28;13.32;;;11.43;;
7485;SDS011;3784;54.098;9.998;2022-12-18T09:01:54;15.98;;;12.38;;
7485;SDS011;3784;54.098;9.998;2022-12-18T09:04:21;14.32;;;11.20;;
7485;SDS011;3784;54.098;9.998;2022-12-18T09:06:48;14.23;;;11.55;;
7485;SDS011;3784;54.098;9.998;2022-12-18T09:09:15;16.67;;;12.85;;
7485;SDS011;3784;54.098;9.998;2022-12-18T09:11:41;14.98;;;12.40;;
7485;SDS011;3784;54.098;9.998;2022-12-18T09:14:08;16.33;;;13.07;;
7485;SDS011;3784;54.098;9.998;2022-12-18T09:16:35;19.77;;;14.80;;
7485;SDS011;3784;54.098;9.998;2022-12-18T09:19:03;19.65;;;17.25;;
7485;SDS011;3784;54.098;9.998;2022-12-18T09:21:31;28.00;;;23.38;;
7485;SDS011;3784;54.098;9.998;2022-12-18T09:24:02;19.65;;;15.60;;
7485;SDS011;3784;54.098;9.998;2022-12-18T09:26:32;15.55;;;13.63;;
7485;SDS011;3784;54.098;9.998;2022-12-18T09:28:58;14.55;;;12.52;;
7485;SDS011;3784;54.098;9.998;2022-12-18T09:31:25;15.65;;;11.80;;
7485;SDS011;3784;54.098;9.998;2022-12-18T09:33:51;15.40;;;11.63;;
7485;SDS011;3784;54.098;9.998;2022-12-18T09:36:18;16.95;;;13.25;;
7485;SDS011;3784;54.098;9.998;2022-12-18T09:38:44;16.90;;;13.55;;
7485;SDS011;3784;54.098;9.998;2022-12-18T09:41:21;18.92;;;12.73;;
7485;SDS011;3784;54.098;9.998;2022-12-18T09:43:57;16.40;;;12.57;;
7485;SDS011;3784;54.098;9.998;2022-12-18T09:46:28;13.77;;;11.05;;
7485;SDS011;3784;54.098;9.998;2022-12-18T09:48:58;15.50;;;11.48;;
7485;SDS011;3784;54.098;9.998;2022-12-18T09:51:31;11.73;;;10.23;;
7485;SDS011;3784;54.098;9.998;2022-12-18T09:54:05;16.33;;;11.90;;
7485;SDS011;3784;54.098;9.998;2022-12-18T09:56:35;14.95;;;12.18;;
7485;SDS011;3784;54.098;9.998;2022-12-18T09:59:04;12.45;;;11.13;;
7485;SDS011;3784;54.098;9.998;2022-12-18T10:01:31;15.88;;;11.57;;
7485;SDS011;3784;54.098;9.998;2022-12-18T10:04:08;21.55;;;16.40;;
7485;SDS011;3784;54.098;9.998;2022-12-18T10:06:37;19.15;;;14.52;;
7485;SDS011;3784;54.098;9.998;2022-12-18T10:09:28;14.93;;;11.68;;
7485;SDS011;3784;54.098;9.998;2022-12-18T10:12:04;11.15;;;9.63;;
7485;SDS011;3784;54.098;9.998;2022-12-18T10:22:58;14.68;;;10.60;;
7485;SDS011;3784;54.098;9.998;2022-12-18T10:25:55;12.75;;;10.50;;
7485;SDS011;3784;54.098;9.998;2022-12-18T10:28:36;12.98;;;10.60;;
7485;SDS011;3784;54.098;9.998;2022-12-18T10:31:06;12.60;;;10.57;;
7485;SDS011;3784;54.098;9.998;2022-12-18T10:33:43;12.45;;;10.15;;
7485;SDS011;3784;54.098;9.998;2022-12-18T10:36:10;13.45;;;10.90;;
7485;SDS011;3784;54.098;9.998;2022-12-18T10:38:37;11.88;;;10.68;;
7485;SDS011;3784;54.098;9.998;2022-12-18T10:41:06;12.63;;;10.30;;
7485;SDS011;3784;54.098;9.998;2022-12-18T10:43:38;12.70;;;10.30;;
7485;SDS011;3784;54.098;9.998;2022-12-18T10:48:49;15.40;;;10.38;;
7485;SDS011;3784;54.098;9.998;2022-12-18T10:51:22;16.00;;;11.43;;
7485;SDS011;3784;54.098;9.998;2022-12-18T10:53:51;12.98;;;11.07;;
7485;SDS011;3784;54.098;9.998;2022-12-18T10:56:21;16.13;;;11.25;;
7485;SDS011;3784;54.098;9.998;2022-12-18T11:01:25;13.93;;;11.38;;
7485;SDS011;3784;54.098;9.998;2022-12-18T11:06:27;14.90;;;10.73;;
7485;SDS011;3784;54.098;9.998;2022-12-18T11:08:59;14.50;;;11.55;;
7485;SDS011;3784;54.098;9.998;2022-12-18T11:11:50;14.23;;;11.57;;
7485;SDS011;3784;54.098;9.998;2022-12-18T11:14:24;12.50;;;11.10;;
7485;SDS011;3784;54.098;9.998;2022-12-18T11:16:55;16.20;;;12.07;;
7485;SDS011;3784;54.098;9.998;2022-12-18T11:19:43;15.70;;;12.10;;
7485;SDS011;3784;54.098;9.998;2022-12-18T11:22:20;16.73;;;12.23;;
7485;SDS011;3784;54.098;9.998;2022-12-18T11:24:55;16.80;;;12.80;;
7485;SDS011;3784;54.098;9.998;2022-12-18T11:27:51;16.57;;;13.17;;
7485;SDS011;3784;54.098;9.998;2022-12-18T11:30:24;16.33;;;13.30;;
7485;SDS011;3784;54.098;9.998;2022-12-18T11:35:56;13.87;;;11.33;;
7485;SDS011;3784;54.098;9.998;2022-12-18T11:38:26;12.50;;;11.20;;
7485;SDS011;3784;54.098;9.998;2022-12-18T11:43:45;16.33;;;14.43;;
7485;SDS011;3784;54.098;9.998;2022-12-18T11:46:24;17.73;;;14.83;;
7485;SDS011;3784;54.098;9.998;2022-12-18T11:51:59;15.53;;;13.27;;
7485;SDS011;3784;54.098;9.998;2022-12-18T11:54:30;20.47;;;15.03;;
7485;SDS011;3784;54.098;9.998;2022-12-18T11:57:14;17.53;;;14.43;;
7485;SDS011;3784;54.098;9.998;2022-12-18T11:59:52;15.97;;;13.50;;
7485;SDS011;3784;54.098;9.998;2022-12-18T12:13:49;16.00;;;12.93;;
7485;SDS011;3784;54.098;9.998;2022-12-18T12:16:31;15.97;;;12.40;;
7485;SDS011;3784;54.098;9.998;2022-12-18T12:22:22;16.67;;;13.50;;
7485;SDS011;3784;54.098;9.998;2022-12-18T12:28:23;13.40;;;11.93;;
7485;SDS011;3784;54.098;9.998;2022-12-18T12:38:50;17.33;;;14.07;;
7485;SDS011;3784;54.098;9.998;2022-12-18T12:41:19;16.63;;;13.23;;
7485;SDS011;3784;54.098;9.998;2022-12-18T12:44:07;14.87;;;12.77;;
7485;SDS011;3784;54.098;9.998;2022-12-18T12:46:37;14.07;;;12.03;;
7485;SDS011;3784;54.098;9.998;2022-12-18T12:49:10;16.37;;;11.97;;
7485;SDS011;3784;54.098;9.998;2022-12-18T12:51:43;14.97;;;12.13;;
7485;SDS011;3784;54.098;9.998;2022-12-18T12:54:16;14.33;;;12.07;;
7485;SDS011;3784;54.098;9.998;2022-12-18T12:56:56;15.00;;;12.53;;
7485;SDS011;3784;54.098;9.998;2022-12-18T12:59:47;14.40;;;11.70;;
7485;SDS011;3784;54.098;9.998;2022-12-18T13:05:23;12.53;;;11.23;;
7485;SDS011;3784;54.098;9.998;2022-12-18T13:07:59;17.27;;;12.50;;
7485;SDS011;3784;54.098;9.998;2022-12-18T13:13:15;12.90;;;10.90;;
7485;SDS011;3784;54.098;9.998;2022-12-18T13:15:49;14.07;;;12.00;;
7485;SDS011;3784;54.098;9.998;2022-12-18T13:18:31;13.07;;;11.67;;
7485;SDS011;3784;54.098;9.998;2022-12-18T13:23:30;16.33;;;11.73;;
7485;SDS011;3784;54.098;9.998;2022-12-18T13:31:14;15.63;;;11.87;;
7485;SDS011;3784;54.098;9.998;2022-12-18T13:36:54;19.73;;;13.43;;
7485;SDS011;3784;54.098;9.998;2022-12-18T13:39:23;18.10;;;12.77;;
7485;SDS011;3784;54.098;9.998;2022-12-18T13:44:36;18.47;;;13.60;;
7485;SDS011;3784;54.098;9.998;2022-12-18T13:50:00;17.73;;;14.00;;
7485;SDS011;3784;54.098;9.998;2022-12-18T13:52:28;19.87;;;14.37;;
7485;SDS011;3784;54.098;9.998;2022-12-18T13:55:01;21.13;;;15.40;;
7485;SDS011;3784;54.098;9.998;2022-12-18T13:57:30;20.73;;;15.07;;
7485;SDS011;3784;54.098;9.998;2022-12-18T14:03:15;23.30;;;16.05;;
7485;SDS011;3784;54.098;9.998;2022-12-18T14:05:52;22.55;;;17.35;;
7485;SDS011;3784;54.098;9.998;2022-12-18T14:08:20;24.67;;;16.30;;
7485;SDS011;3784;54.098;9.998;2022-12-18T14:10:48;24.40;;;17.58;;
7485;SDS011;3784;54.098;9.998;2022-12-18T14:13:38;22.60;;;16.60;;
7485;SDS011;3784;54.098;9.998;2022-12-18T14:16:04;26.23;;;17.10;;
7485;SDS011;3784;54.098;9.998;2022-12-18T14:21:23;25.02;;;17.77;;
7485;SDS011;3784;54.098;9.998;2022-12-18T14:26:44;31.60;;;20.25;;
7485;SDS011;3784;54.098;9.998;2022-12-18T14:34:38;27.08;;;17.75;;
7485;SDS011;3784;54.098;9.998;2022-12-18T14:37:07;25.73;;;17.88;;
7485;SDS011;3784;54.098;9.998;2022-12-18T14:39:36;25.05;;;17.70;;
7485;SDS011;3784;54.098;9.998;2022-12-18T14:42:02;25.25;;;16.65;;
7485;SDS011;3784;54.098;9.998;2022-12-18T14:44:29;23.80;;;17.58;;
7485;SDS011;3784;54.098;9.998;2022-12-18T14:47:15;28.90;;;18.58;;
7485;SDS011;3784;54.098;9.998;2022-12-18T14:49:42;25.80;;;18.77;;
7485;SDS011;3784;54.098;9.998;2022-12-18T14:52:19;27.17;;;17.20;;
7485;SDS011;3784;54.098;9.998;2022-12-18T14:54:49;25.77;;;16.85;;
7485;SDS011;3784;54.098;9.998;2022-12-18T14:59:50;27.95;;;18.55;;
7485;SDS011;3784;54.098;9.998;2022-12-18T15:02:23;25.08;;;18.13;;
7485;SDS011;3784;54.098;9.998;2022-12-18T15:05:14;26.90;;;17.10;;
7485;SDS011;3784;54.098;9.998;2022-12-18T15:07:45;28.77;;;18.55;;
7485;SDS011;3784;54.098;9.998;2022-12-18T15:17:59;26.85;;;16.77;;
7485;SDS011;3784;54.098;9.998;2022-12-18T15:20:26;24.20;;;16.85;;
7485;SDS011;3784;54.098;9.998;2022-12-18T15:22:52;25.35;;;17.88;;
7485;SDS011;3784;54.098;9.998;2022-12-18T15:25:27;27.10;;;18.00;;
7485;SDS011;3784;54.098;9.998;2022-12-18T15:28:00;28.42;;;18.17;;
7485;SDS011;3784;54.098;9.998;2022-12-18T15:30:27;29.20;;;17.98;;
7485;SDS011;3784;54.098;9.998;2022-12-18T15:33:16;24.63;;;17.83;;
7485;SDS011;3784;54.098;9.998;2022-12-18T15:35:55;26.40;;;17.92;;
7485;SDS011;3784;54.098;9.998;2022-12-18T15:38:25;27.38;;;18.02;;
7485;SDS011;3784;54.098;9.998;2022-12-18T15:40:52;30.42;;;20.17;;
7485;SDS011;3784;54.098;9.998;2022-12-18T15:43:21;31.30;;;19.10;;
7485;SDS011;3784;54.098;9.998;2022-12-18T15:46:04;79.03;;;38.60;;
7485;SDS011;3784;54.098;9.998;2022-12-18T15:48:34;42.53;;;24.92;;
7485;SDS011;3784;54.098;9.998;2022-12-18T15:51:01;49.80;;;30.77;;
7485;SDS011;3784;54.098;9.998;2022-12-18T15:53:29;31.75;;;20.73;;
7485;SDS011;3784;54.098;9.998;2022-12-18T15:55:58;27.80;;;18.60;;
7485;SDS011;3784;54.098;9.998;2022-12-18T15:58:45;31.50;;;19.95;;
7485;SDS011;3784;54.098;9.998;2022-12-18T16:01:11;34.83;;;21.80;;
7485;SDS011;3784;54.098;9.998;2022-12-18T16:03:38;32.72;;;20.08;;
7485;SDS011;3784;54.098;9.998;2022-12-18T16:06:05;30.33;;;19.85;;
7485;SDS011;3784;54.098;9.998;2022-12-18T16:08:32;32.50;;;19.10;;
7485;SDS011;3784;54.098;9.998;2022-12-18T16:10:59;30.98;;;19.23;;
7485;SDS011;3784;54.098;9.998;2022-12-18T16:13:26;31.48;;;18.90;;
7485;SDS011;3784;54.098;9.998;2022-12-18T16:15:52;35.35;;;22.00;;
7485;SDS011;3784;54.098;9.998;2022-12-18T16:18:19;31.52;;;19.45;;
7485;SDS011;3784;54.098;9.998;2022-12-18T16:20:45;29.35;;;19.60;;
7485;SDS011;3784;54.098;9.998;2022-12-18T16:23:12;32.58;;;20.10;;
7485;SDS011;3784;54.098;9.998;2022-12-18T16:25:38;32.17;;;20.70;;
7485;SDS011;3784;54.098;9.998;2022-12-18T16:28:05;34.88;;;22.67;;
7485;SDS011;3784;54.098;9.998;2022-12-18T16:30:31;34.75;;;20.42;;
7485;SDS011;3784;54.098;9.998;2022-12-18T16:33:03;37.00;;;22.65;;
7485;SDS011;3784;54.098;9.998;2022-12-18T16:35:30;37.53;;;22.98;;
7485;SDS011;3784;54.098;9.998;2022-12-18T16:37:56;35.83;;;22.35;;
7485;SDS011;3784;54.098;9.998;2022-12-18T16:40:23;30.75;;;19.77;;
7485;SDS011;3784;54.098;9.998;2022-12-18T16:42:49;34.92;;;21.00;;
7485;SDS011;3784;54.098;9.998;2022-12-18T16:45:16;36.88;;;21.08;;
7485;SDS011;3784;54.098;9.998;2022-12-18T16:47:43;35.45;;;21.42;;
7485;SDS011;3784;54.098;9.998;2022-12-18T16:50:10;34.45;;;20.27;;
7485;SDS011;3784;54.098;9.998;2022-12-18T16:52:37;36.53;;;21.20;;
7485;SDS011;3784;54.098;9.998;2022-12-18T16:55:04;32.92;;;19.85;;
7485;SDS011;3784;54.098;9.998;2022-12-18T16:57:31;32.00;;;18.80;;
7485;SDS011;3784;54.098;9.998;2022-12-18T16:59:57;34.20;;;19.55;;
7485;SDS011;3784;54.098;9.998;2022-12-18T17:02:30;34.75;;;20.60;;
7485;SDS011;3784;54.098;9.998;2022-12-18T17:04:57;32.10;;;19.30;;
7485;SDS011;3784;54.098;9.998;2022-12-18T17:07:31;33.25;;;19.30;;